Flight Track Log - Related Links

Times and Time Zones

All times are in EDT time to prevent confusion due to time zone crossing. See the EJA583 flight status page for this flight to view local times or setup timezone preferences in your user account.

Time Position Orientation Groundspeed Altitude Reporting Facility
EDT Latitude Longitude Course Direction KTS km/h feet Rate Location/Type
Mon 17:15:54 32.0053 -81.2217 215° Southwest 231 428 6,300  Level Jacksonville Center
Mon 17:16:54 31.9411 -81.2817 218° Southwest 260 481 9,900 2,777 Climbing Jacksonville Center
Mon 17:17:55 31.8833 -81.3194 209° Southwest 265 491 11,900 2,281 Climbing Jacksonville Center
Mon 17:18:55 31.7892 -81.3014 171° South 284 526 14,500 2,500 Climbing Jacksonville Center
Mon 17:19:55 31.7097 -81.2956 176° South 314 581 16,900 2,350 Climbing Jacksonville Center
Mon 17:20:00 31.6280 -81.6179 215° Southwest  Level FlightAware Approximate
Mon 17:20:55 31.6094 -81.2875 176° South 328 607 19,200  Level Jacksonville Center
Mon 17:21:00 31.5447 -81.6857 215° Southwest  Level FlightAware Approximate
Mon 17:21:55 31.5194 -81.2792 175° South 334 618 21,200  Level Jacksonville Center
Mon 17:22:55 31.4339 -81.2708 175° South 334 618 22,400 908 Climbing Jacksonville Center
Mon 17:23:54 31.3336 -81.2653 177° South 350 649 23,000 750 Climbing Jacksonville Center
Mon 17:24:55 31.2311 -81.2600 177° South 363 673 23,900 1,100 Climbing Jacksonville Center
Mon 17:25:54 31.1308 -81.2544 177° South 368 681 25,200 1,150 Climbing Jacksonville Center
Mon 17:26:55 31.0283 -81.2464 176° South 368 681 26,200 950 Climbing Jacksonville Center
Mon 17:27:54 30.9239 -81.2361 175° South 368 681 27,100 756 Climbing Jacksonville Center
Mon 17:28:54 30.8172 -81.2236 174° South 368 681 27,700 595 Climbing Jacksonville Center
Mon 17:29:55 30.7144 -81.1964 167° South 374 692 28,300 595 Climbing Jacksonville Center
Mon 17:30:55 30.6117 -81.1594 163° South 379 702 28,900 600 Climbing Jacksonville Center
Mon 17:31:55 30.5106 -81.0964 152° Southeast 390 723 29,500 700 Climbing Jacksonville Center
Mon 17:32:55 30.4158 -81.0403 153° Southeast 390 723 30,300 800 Climbing Jacksonville Center
Mon 17:33:55 30.3169 -80.9844 154° Southeast 395 732 31,100 850 Climbing Jacksonville Center
Mon 17:34:55 30.2100 -80.9433 162° South 400 740 32,000 1,050 Climbing Jacksonville Center
Mon 17:35:55 30.0989 -80.9239 171° South 400 740 33,200 1,200 Climbing Jacksonville Center
Mon 17:36:55 29.9900 -80.9022 170° South 400 740 34,400 1,250 Climbing Jacksonville Center
Mon 17:37:55 29.8811 -80.8853 172° South 394 729 35,700 807 Climbing Jacksonville Center
Mon 17:38:54 29.7703 -80.8658 171° South 394 729 36,000 94 Climbing Jacksonville Center
Mon 17:41:06 29.5247 -80.8214 171° South 395 732 36,000  Level Miami Center
Mon 17:42:06 29.4292 -80.8061 172° South 395 732 36,000  Level Miami Center
Mon 17:43:06 29.3211 -80.7881 172° South 390 723 36,000  Level Miami Center
Mon 17:44:06 29.2133 -80.7697 172° South 390 723 36,000  Level Miami Center
Mon 17:45:06 29.1053 -80.7517 172° South 390 723 36,000  Level Miami Center
Mon 17:46:06 29.0017 -80.7314 170° South 390 723 36,000  Level Miami Center
Mon 17:47:06 28.8833 -80.7106 171° South 385 713 36,000 -100 Level Miami Center
Mon 17:48:06 28.7897 -80.6933 171° South 385 713 35,800 -1,000 Descending Miami Center
Mon 17:49:06 28.6842 -80.6658 167° South 391 724 34,000 -1,900 Descending Miami Center
Mon 17:50:06 28.5858 -80.5939 147° Southeast 382 708 32,000 -1,800 Descending Miami Center
Mon 17:51:06 28.4978 -80.5319 148° Southeast 377 698 30,400 -1,700 Descending Miami Center
Mon 17:52:06 28.4036 -80.4653 148° Southeast 384 711 28,600 -1,950 Descending Miami Center
Mon 17:53:06 28.3172 -80.4106 151° Southeast 391 724 26,500 -2,300 Descending Miami Center
Mon 17:54:06 28.2094 -80.3789 165° South 396 734 24,000 -3,100 Descending Miami Center
Mon 17:55:06 28.1022 -80.3239 156° South 396 734 20,300 -3,300 Descending Miami Center
Mon 17:56:06 28.0181 -80.2742 152° Southeast 391 724 17,400 -3,150 Descending Miami Center
Mon 17:57:06 27.9358 -80.2200 150° Southeast 369 684 14,000 -3,150 Descending Miami Center
Mon 17:58:06 27.8575 -80.1731 152° Southeast 343 636 11,100 -2,050 Descending Miami Center
Mon 17:59:06 27.7814 -80.1264 152° Southeast 317 587 9,900 -550 Descending Miami Center
Mon 18:00:06 27.6906 -80.0814 156° South 320 592 10,000 50 Climbing Miami Center
Mon 18:01:06 27.6011 -80.0603 168° South 326 604 10,000 -50 Level Miami Center
Mon 18:02:06 27.5108 -80.0833 193° South 323 599 9,900 -50 Descending Miami Center
Mon 18:03:06 27.4353 -80.1047 194° South 323 599 9,900 50 Level Miami Center
Mon 18:04:06 27.3575 -80.1283 195° South 306 566 10,000 50 Climbing Miami Center
Mon 18:05:06 27.2675 -80.1328 183° South 299 554 10,000 -300 Level Miami Center
Mon 18:06:06 27.1886 -80.1117 167° South 292 541 9,400 -1,100 Descending Miami Center
Mon 18:07:06 27.1111 -80.1214 186° South 292 541 7,800 -1,700 Descending Miami Center
Mon 18:08:06 27.0419 -80.1311 187° South 286 529 6,000 -2,050 Descending Miami Center
Mon 18:09:06 26.9647 -80.1381 185° South 268 496 3,700 -1,700 Descending Miami Center
Mon 18:10:06 26.8997 -80.1456 186° South 256 475 2,600 -1,100 Descending Miami Center
Mon 18:11:06 26.8411 -80.1533 187° South 233 431 1,500 -1,100 Descending Miami Center
Mon 18:13:00 26.6832 -80.0956 254° West  Level Estimated
Mon 18:20:00 26.6832 -80.0956 110° East  Level Estimated
Mon 18:21:00 26.6832 -80.0956 110° East  Level Estimated
Mon 18:22:00 26.6832 -80.0956 110° East  Level Estimated
Mon 18:23:00 26.6832 -80.0956 110° East  Level Estimated
Mon 18:24:00 26.6832 -80.0956 110° East  Level Estimated

Login

Don't have an account? Register now (free) for customized features, flight alerts, and more!